createdAt,value
2019-04-16T00:02:01.716Z,-0.53
2019-04-16T00:04:53.746Z,-0.46
2019-04-16T00:07:48.333Z,-0.47
2019-04-16T00:10:27.094Z,-0.52
2019-04-16T00:13:20.614Z,-0.51
2019-04-16T00:15:54.533Z,-0.49
2019-04-16T00:18:26.534Z,-0.49
2019-04-16T00:21:16.066Z,-0.46
2019-04-16T00:24:07.038Z,-0.50
2019-04-16T00:26:39.564Z,-0.51
2019-04-16T00:29:11.504Z,-0.40
2019-04-16T00:31:43.432Z,-0.34
2019-04-16T00:34:15.144Z,-0.21
2019-04-16T00:36:48.795Z,-0.13
2019-04-16T00:39:24.806Z,-0.04
2019-04-16T00:41:56.404Z,0.04
2019-04-16T00:44:29.153Z,0.13
2019-04-16T00:47:01.214Z,0.19
2019-04-16T00:49:33.474Z,0.23
2019-04-16T00:52:06.770Z,0.23
2019-04-16T00:54:39.330Z,0.23
2019-04-16T00:57:10.464Z,0.20
2019-04-16T00:59:42.574Z,0.24
2019-04-16T01:02:13.792Z,0.28
2019-04-16T01:04:45.744Z,0.28
2019-04-16T01:07:18.053Z,0.32
2019-04-16T01:09:50.102Z,0.38
2019-04-16T01:12:22.152Z,0.33
2019-04-16T01:14:53.342Z,0.32
2019-04-16T01:17:25.423Z,0.27
2019-04-16T01:19:56.432Z,0.22
2019-04-16T01:22:28.613Z,0.18
2019-04-16T01:25:00.763Z,0.20
2019-04-16T01:27:43.239Z,0.20
2019-04-16T01:30:16.015Z,0.27
2019-04-16T01:33:17.674Z,0.32
2019-04-16T01:35:59.164Z,0.32
2019-04-16T01:39:07.516Z,0.33
2019-04-16T01:41:27.844Z,0.33
2019-04-16T01:43:59.172Z,0.38
2019-04-16T01:46:32.791Z,0.38
2019-04-16T01:49:09.765Z,0.37
2019-04-16T01:51:38.744Z,0.41
2019-04-16T01:54:10.967Z,0.48
2019-04-16T01:56:42.034Z,0.49
2019-04-16T01:59:14.444Z,0.46
2019-04-16T02:01:46.497Z,0.43
2019-04-16T02:04:20.472Z,0.46
2019-04-16T02:06:54.369Z,0.56
2019-04-16T02:09:26.494Z,0.59
2019-04-16T02:11:57.702Z,0.54
2019-04-16T02:14:29.804Z,0.55
2019-04-16T02:17:02.285Z,0.56
2019-04-16T02:19:33.607Z,0.49
2019-04-16T02:22:05.564Z,0.42
2019-04-16T02:24:37.934Z,0.43
2019-04-16T02:27:10.359Z,0.40
2019-04-16T02:29:41.352Z,0.36
2019-04-16T02:32:13.395Z,0.28
2019-04-16T02:34:45.966Z,0.20
2019-04-16T02:37:18.135Z,0.18
2019-04-16T02:39:52.543Z,0.18
2019-04-16T02:42:30.699Z,0.24
2019-04-16T02:44:59.954Z,0.35
2019-04-16T02:47:40.268Z,0.35
2019-04-16T02:50:08.763Z,0.37
2019-04-16T02:52:52.333Z,0.33
2019-04-16T02:55:45.605Z,0.26
2019-04-16T02:58:22.417Z,0.22
2019-04-16T03:01:25.414Z,0.16
2019-04-16T03:04:03.033Z,0.15
2019-04-16T03:06:35.194Z,0.13
2019-04-16T03:09:09.070Z,0.06
2019-04-16T03:11:41.552Z,0.06
2019-04-16T03:14:12.662Z,0.04
2019-04-16T03:17:10.208Z,-0.04
2019-04-16T03:19:44.914Z,-0.16
2019-04-16T03:22:18.414Z,-0.26
2019-04-16T03:24:50.497Z,-0.42
2019-04-16T03:27:22.866Z,-0.65
2019-04-16T03:29:55.057Z,-0.86
2019-04-16T03:32:34.170Z,-0.98
2019-04-16T03:35:04.188Z,-1.05
2019-04-16T03:37:36.757Z,-1.08
2019-04-16T03:40:17.115Z,-1.00
2019-04-16T03:42:43.005Z,-0.99
2019-04-16T03:45:14.702Z,-0.99
2019-04-16T03:47:50.855Z,-0.96
2019-04-16T03:50:20.536Z,-0.94
2019-04-16T03:52:52.584Z,-0.93
2019-04-16T03:55:26.618Z,-0.91
2019-04-16T03:57:58.895Z,-0.95
2019-04-16T04:00:31.464Z,-0.96
2019-04-16T04:03:03.683Z,-0.98
2019-04-16T04:05:35.712Z,-0.98
2019-04-16T04:08:08.042Z,-0.98
2019-04-16T04:10:40.135Z,-0.98
2019-04-16T04:13:17.500Z,-1.00
2019-04-16T04:15:46.115Z,-0.98
2019-04-16T04:18:17.272Z,-0.96
2019-04-16T04:20:50.549Z,-0.98
2019-04-16T04:23:25.406Z,-1.00
2019-04-16T04:25:56.772Z,-0.97
2019-04-16T04:28:27.916Z,-0.91
2019-04-16T04:31:03.367Z,-0.90
2019-04-16T04:33:41.614Z,-0.91
2019-04-16T04:36:12.722Z,-0.91
2019-04-16T04:38:46.402Z,-0.93
2019-04-16T04:41:22.793Z,-0.93
2019-04-16T04:43:53.856Z,-0.92
2019-04-16T04:46:27.813Z,-0.88
2019-04-16T04:49:00.456Z,-0.82
2019-04-16T04:51:33.320Z,-0.73
2019-04-16T04:54:06.021Z,-0.62
2019-04-16T04:56:38.339Z,-0.47
2019-04-16T04:59:10.587Z,-0.32
2019-04-16T05:01:42.754Z,-0.18
2019-04-16T05:04:28.050Z,-0.06
2019-04-16T05:07:04.968Z,-0.06
2019-04-16T05:09:37.303Z,0.04
2019-04-16T05:12:10.222Z,0.15
2019-04-16T05:14:57.540Z,0.27
2019-04-16T05:17:28.818Z,0.38
2019-04-16T05:20:01.025Z,0.54
2019-04-16T05:22:33.462Z,0.60
2019-04-16T05:25:06.171Z,0.75
2019-04-16T05:27:41.048Z,0.95
2019-04-16T05:30:12.562Z,1.14
2019-04-16T05:32:44.922Z,1.33
2019-04-16T05:35:17.022Z,1.51
2019-04-16T05:37:51.534Z,1.68
2019-04-16T05:40:23.444Z,1.85
2019-04-16T05:42:58.930Z,2.06
2019-04-16T05:45:30.209Z,2.28
2019-04-16T05:48:02.241Z,2.52
2019-04-16T05:50:33.480Z,2.81
2019-04-16T05:53:08.465Z,3.14
2019-04-16T05:55:53.812Z,3.46
2019-04-16T05:58:27.499Z,3.88
2019-04-16T06:01:05.085Z,4.20
2019-04-16T06:03:37.232Z,4.56
2019-04-16T06:06:09.311Z,4.92
2019-04-16T06:08:41.786Z,5.20
2019-04-16T06:11:27.569Z,5.44
2019-04-16T06:13:58.071Z,5.65
2019-04-16T06:16:38.942Z,5.90
2019-04-16T06:19:46.902Z,6.10
2019-04-16T06:22:29.575Z,6.25
2019-04-16T06:25:11.675Z,6.47
2019-04-16T06:28:01.152Z,6.81
2019-04-16T06:30:41.232Z,7.03
2019-04-16T06:33:24.137Z,7.32
2019-04-16T06:36:14.064Z,7.59
2019-04-16T06:38:54.958Z,7.74
2019-04-16T06:41:58.912Z,7.94
2019-04-16T06:44:34.785Z,8.17
2019-04-16T06:47:22.221Z,8.36
2019-04-16T06:50:31.102Z,8.45
2019-04-16T06:53:12.872Z,8.75
2019-04-16T06:55:55.040Z,8.81
2019-04-16T06:58:51.097Z,9.20
2019-04-16T07:01:37.345Z,9.49
2019-04-16T07:04:29.570Z,9.77
2019-04-16T07:07:22.161Z,10.12
2019-04-16T07:10:04.752Z,10.29
2019-04-16T07:12:38.482Z,10.40
2019-04-16T07:15:11.382Z,10.53
2019-04-16T07:17:43.562Z,10.76
2019-04-16T07:20:16.100Z,10.98
2019-04-16T07:22:52.705Z,11.14
2019-04-16T07:25:26.382Z,11.18
2019-04-16T07:28:04.014Z,11.42
2019-04-16T07:30:44.036Z,11.63
2019-04-16T07:33:44.342Z,11.92
2019-04-16T07:36:48.163Z,12.24
2019-04-16T07:39:29.731Z,12.33
2019-04-16T07:42:15.739Z,12.52
2019-04-16T07:45:00.607Z,12.80
2019-04-16T07:47:39.631Z,13.13
2019-04-16T07:50:34.852Z,13.29
2019-04-16T07:53:19.252Z,13.50
2019-04-16T07:55:53.908Z,13.65
2019-04-16T07:58:27.114Z,13.77
2019-04-16T08:01:00.180Z,13.81
2019-04-16T08:03:32.502Z,13.98
2019-04-16T08:06:04.572Z,14.20
2019-04-16T08:08:38.937Z,14.66
2019-04-16T08:11:11.341Z,14.99
2019-04-16T08:13:46.362Z,15.14
2019-04-16T08:16:24.791Z,15.13
2019-04-16T08:19:05.853Z,15.17
2019-04-16T08:21:49.002Z,14.97
2019-04-16T08:29:07.322Z,15.20
2019-04-16T08:41:44.078Z,15.89
2019-04-16T08:44:36.468Z,15.95
2019-04-16T08:47:44.365Z,16.19
2019-04-16T08:51:30.384Z,16.45
2019-04-16T08:54:01.775Z,16.58
2019-04-16T08:56:39.314Z,16.75
2019-04-16T08:59:11.967Z,16.80
2019-04-16T09:07:38.581Z,16.32
2019-04-16T09:13:18.883Z,16.82
2019-04-16T09:16:01.795Z,17.10
2019-04-16T09:19:16.890Z,17.22
2019-04-16T09:21:49.083Z,17.31
2019-04-16T09:24:26.615Z,16.95
2019-04-16T09:27:12.470Z,17.25
2019-04-16T09:30:16.941Z,17.76
2019-04-16T09:33:30.400Z,18.03
2019-04-16T09:36:51.001Z,18.31
2019-04-16T09:39:46.942Z,18.21
2019-04-16T09:42:19.181Z,18.35
2019-04-16T09:44:50.200Z,18.20
2019-04-16T09:47:22.262Z,18.41
2019-04-16T09:49:53.223Z,18.55
2019-04-16T09:52:25.152Z,18.21
2019-04-16T09:54:58.203Z,18.02
2019-04-16T09:57:32.392Z,17.69
2019-04-16T10:00:08.371Z,18.05
2019-04-16T10:02:44.429Z,18.14
2019-04-16T10:05:16.976Z,18.61
2019-04-16T10:07:49.250Z,18.66
2019-04-16T10:10:24.303Z,18.85
2019-04-16T10:12:56.485Z,18.91
2019-04-16T10:15:30.161Z,19.23
2019-04-16T10:18:09.940Z,19.16
2019-04-16T10:20:41.795Z,19.34
2019-04-16T10:24:13.114Z,19.58
2019-04-16T10:26:46.656Z,19.43
2019-04-16T10:29:20.206Z,18.69
2019-04-16T10:31:52.981Z,19.22
2019-04-16T10:34:25.105Z,19.15
2019-04-16T10:36:57.250Z,19.19
2019-04-16T10:39:42.112Z,18.91
2019-04-16T10:42:31.950Z,18.86
2019-04-16T10:45:34.765Z,19.23
2019-04-16T10:48:31.893Z,19.62
2019-04-16T10:51:15.201Z,20.10
2019-04-16T10:54:05.258Z,20.31
2019-04-16T10:56:57.945Z,20.15
2019-04-16T11:00:03.256Z,19.35
2019-04-16T11:02:54.091Z,19.28
2019-04-16T11:05:42.144Z,19.25
2019-04-16T11:08:14.714Z,19.44
2019-04-16T11:10:47.608Z,19.39
2019-04-16T11:13:28.107Z,19.76
2019-04-16T11:16:04.851Z,19.77
2019-04-16T11:18:40.477Z,19.31
2019-04-16T11:21:13.601Z,19.58
2019-04-16T11:23:45.675Z,19.98
2019-04-16T11:26:17.665Z,19.38
2019-04-16T11:28:49.865Z,19.34
2019-04-16T11:31:22.932Z,19.37
2019-04-16T11:33:56.106Z,19.37
2019-04-16T11:36:48.324Z,19.68
2019-04-16T11:39:20.255Z,18.83
2019-04-16T11:42:05.409Z,19.25
2019-04-16T11:45:01.103Z,19.90
2019-04-16T11:47:34.156Z,19.50
2019-04-16T11:50:07.548Z,19.11
2019-04-16T11:52:49.052Z,18.77
2019-04-16T11:55:22.585Z,18.52
2019-04-16T11:57:56.271Z,18.68
2019-04-16T12:00:34.138Z,18.32
2019-04-16T12:03:28.215Z,17.95
2019-04-16T12:06:28.299Z,18.17
2019-04-16T12:09:13.561Z,18.09
2019-04-16T12:11:58.187Z,18.39
2019-04-16T12:14:49.091Z,18.66
2019-04-16T12:17:44.615Z,19.29
2019-04-16T12:20:24.232Z,19.59
2019-04-16T12:23:12.704Z,19.12
2019-04-16T12:26:10.630Z,18.60
2019-04-16T12:29:00.034Z,17.74
2019-04-16T12:31:50.051Z,16.84
2019-04-16T12:34:27.885Z,16.67
2019-04-16T12:37:15.127Z,17.83
2019-04-16T12:40:19.050Z,18.27
2019-04-16T12:43:00.586Z,18.09
2019-04-16T12:46:00.493Z,17.91
2019-04-16T12:48:45.246Z,18.28
2019-04-16T12:51:42.315Z,18.44
2019-04-16T12:54:39.224Z,18.71
2019-04-16T12:57:46.830Z,17.76
2019-04-16T13:00:31.604Z,17.09
2019-04-16T13:03:22.765Z,16.78
2019-04-16T13:06:11.926Z,16.75
2019-04-16T13:09:02.867Z,16.70
2019-04-16T13:11:45.687Z,16.50
2019-04-16T13:15:00.642Z,15.91
2019-04-16T13:17:40.127Z,15.49
2019-04-16T13:20:31.295Z,15.03
2019-04-16T13:23:07.716Z,14.88
2019-04-16T13:25:51.757Z,14.62
2019-04-16T13:28:23.912Z,14.71
2019-04-16T13:30:54.970Z,14.78
2019-04-16T13:33:26.832Z,14.62
2019-04-16T13:35:59.107Z,14.59
2019-04-16T13:38:31.019Z,14.21
2019-04-16T13:41:02.883Z,13.78
2019-04-16T13:43:39.992Z,13.72
2019-04-16T13:46:13.157Z,13.81
2019-04-16T13:48:50.721Z,13.90
2019-04-16T13:51:24.653Z,13.85
2019-04-16T13:54:15.724Z,13.55
2019-04-16T13:56:52.197Z,13.26
2019-04-16T14:00:03.076Z,13.15
2019-04-16T14:02:39.581Z,13.15
2019-04-16T14:05:11.984Z,13.17
2019-04-16T14:07:43.252Z,13.04
2019-04-16T14:10:15.710Z,12.68
2019-04-16T14:12:48.783Z,12.41
2019-04-16T14:15:31.892Z,12.00
2019-04-16T14:17:59.384Z,11.83
2019-04-16T14:20:30.341Z,11.54
2019-04-16T14:23:02.573Z,11.35
2019-04-16T14:25:33.572Z,11.15
2019-04-16T14:28:05.452Z,10.90
2019-04-16T14:30:42.842Z,10.68
2019-04-16T14:33:19.082Z,10.60
2019-04-16T14:35:51.241Z,10.41
2019-04-16T14:38:33.960Z,10.17
2019-04-16T14:41:06.610Z,9.96
2019-04-16T14:43:42.242Z,9.69
2019-04-16T14:46:14.841Z,9.65
2019-04-16T14:48:49.261Z,9.57
2019-04-16T14:51:21.864Z,9.42
2019-04-16T14:54:14.115Z,9.25
2019-04-16T14:56:51.455Z,9.17
2019-04-16T14:59:40.850Z,8.86
2019-04-16T15:02:31.451Z,8.71
2019-04-16T15:05:36.722Z,8.73
2019-04-16T15:08:47.765Z,8.68
2019-04-16T15:12:01.878Z,8.69
2019-04-16T15:14:37.229Z,8.67
2019-04-16T15:17:26.282Z,8.58
2019-04-16T15:20:36.152Z,8.56
2019-04-16T15:24:21.751Z,8.42
2019-04-16T15:47:37.472Z,8.19
2019-04-16T15:54:31.800Z,8.14
2019-04-16T15:57:36.072Z,8.11
2019-04-16T16:00:49.458Z,8.09
2019-04-16T16:06:27.911Z,8.08
2019-04-16T16:09:13.962Z,8.05
2019-04-16T16:11:52.840Z,8.11
2019-04-16T16:14:46.001Z,8.13
2019-04-16T16:17:25.352Z,7.98
2019-04-16T16:19:57.722Z,7.82
2019-04-16T16:22:33.061Z,7.77
2019-04-16T16:25:06.629Z,7.79
2019-04-16T16:27:47.382Z,7.79
2019-04-16T16:30:30.982Z,7.81
2019-04-16T16:33:05.312Z,7.81
2019-04-16T16:35:56.896Z,7.70
2019-04-16T16:38:16.291Z,7.72
2019-04-16T16:41:02.481Z,7.81
2019-04-16T16:43:55.541Z,7.81
2019-04-16T16:46:56.490Z,7.77
2019-04-16T16:49:36.082Z,7.71
2019-04-16T16:52:44.049Z,7.67
2019-04-16T16:55:10.601Z,7.66
2019-04-16T17:01:21.965Z,7.66
2019-04-16T17:04:16.099Z,7.66
2019-04-16T17:06:50.141Z,7.68
2019-04-16T17:09:44.730Z,7.64
2019-04-16T17:12:19.211Z,7.58
2019-04-16T17:14:54.310Z,7.56
2019-04-16T17:17:33.767Z,7.54
2019-04-16T17:20:09.681Z,7.52
2019-04-16T17:22:48.419Z,7.48
2019-04-16T17:25:36.322Z,7.49
2019-04-16T17:27:59.821Z,7.47
2019-04-16T17:30:40.572Z,7.47
2019-04-16T17:33:25.140Z,7.47
2019-04-16T17:36:00.649Z,7.45
2019-04-16T17:38:46.379Z,7.37
2019-04-16T17:41:55.269Z,7.37
2019-04-16T17:45:41.120Z,7.36
2019-04-16T17:48:33.046Z,7.37
2019-04-16T17:51:27.055Z,7.36
2019-04-16T17:54:10.561Z,7.32
2019-04-16T17:56:59.823Z,7.30
2019-04-16T17:59:50.861Z,7.31
2019-04-16T18:02:45.021Z,7.30
2019-04-16T18:05:34.363Z,7.22
2019-04-16T18:08:24.345Z,7.20
2019-04-16T18:11:15.732Z,7.16
2019-04-16T18:13:53.647Z,7.11
2019-04-16T18:16:32.117Z,7.07
2019-04-16T18:19:11.422Z,7.03
2019-04-16T18:22:03.807Z,6.99
2019-04-16T18:24:51.341Z,6.96
2019-04-16T18:27:45.191Z,6.95
2019-04-16T18:30:43.585Z,6.91
2019-04-16T18:33:43.463Z,6.87
2019-04-16T18:36:23.830Z,6.85
2019-04-16T18:43:17.321Z,6.88
2019-04-16T18:46:30.034Z,6.90
2019-04-16T18:49:04.430Z,6.88
2019-04-16T18:52:06.658Z,6.85
2019-04-16T18:54:51.561Z,6.85
2019-04-16T18:57:22.840Z,6.90
2019-04-16T18:59:54.853Z,6.90
2019-04-16T19:02:30.331Z,6.91
2019-04-16T19:05:11.101Z,6.89
2019-04-16T19:07:44.115Z,6.88
2019-04-16T19:10:23.611Z,6.85
2019-04-16T19:12:55.921Z,6.68
2019-04-16T19:15:28.655Z,6.89
2019-04-16T19:18:17.243Z,6.89
2019-04-16T19:20:35.597Z,6.83
2019-04-16T19:23:07.751Z,6.79
2019-04-16T19:25:41.071Z,6.75
2019-04-16T19:28:13.171Z,6.71
2019-04-16T19:30:44.489Z,6.72
2019-04-16T19:33:23.279Z,6.71
2019-04-16T19:35:59.648Z,6.71
2019-04-16T19:38:35.748Z,6.74
2019-04-16T19:41:23.370Z,6.73
2019-04-16T19:44:12.470Z,6.76
2019-04-16T19:46:52.567Z,6.79
2019-04-16T19:49:21.922Z,6.81
2019-04-16T19:51:54.127Z,6.83
2019-04-16T19:54:25.389Z,6.85
2019-04-16T19:56:57.516Z,6.85
2019-04-16T19:59:30.264Z,6.81
2019-04-16T20:02:05.731Z,6.82
2019-04-16T20:04:38.190Z,6.82
2019-04-16T20:07:10.601Z,6.85
2019-04-16T20:09:43.341Z,6.85
2019-04-16T20:12:16.406Z,6.85
2019-04-16T20:15:11.774Z,6.83
2019-04-16T20:17:51.253Z,6.87
2019-04-16T20:20:35.131Z,6.86
2019-04-16T20:23:25.861Z,6.85
2019-04-16T20:32:42.303Z,6.68
2019-04-16T20:42:48.172Z,6.82
2019-04-16T20:45:30.969Z,6.85
2019-04-16T20:48:36.490Z,6.84
2019-04-16T20:51:34.278Z,6.80
2019-04-16T20:54:06.216Z,6.76
2019-04-16T20:56:40.489Z,6.80
2019-04-16T20:59:14.946Z,6.77
2019-04-16T21:01:48.439Z,6.74
2019-04-16T21:04:46.486Z,6.74
2019-04-16T21:07:18.969Z,6.73
2019-04-16T21:13:20.287Z,6.58
2019-04-16T21:16:02.913Z,6.72
2019-04-16T21:18:37.356Z,6.70
2019-04-16T21:21:10.385Z,6.63
2019-04-16T21:23:44.685Z,6.63
2019-04-16T21:26:19.969Z,6.66
2019-04-16T21:29:21.615Z,6.69
2019-04-16T21:32:10.685Z,6.70
2019-04-16T21:34:51.273Z,6.71
2019-04-16T21:37:51.635Z,6.71
2019-04-16T21:40:24.131Z,6.71
2019-04-16T21:43:11.894Z,6.64
2019-04-16T21:45:45.593Z,6.65
2019-04-16T21:48:35.307Z,6.63
2019-04-16T21:51:24.000Z,6.61
2019-04-16T21:54:12.559Z,6.60
2019-04-16T21:56:54.695Z,6.48
2019-04-16T21:59:31.488Z,6.36
2019-04-16T22:12:47.604Z,5.92
2019-04-16T22:15:19.501Z,5.79
2019-04-16T22:23:53.343Z,5.48
2019-04-16T22:26:25.685Z,5.38
2019-04-16T22:29:38.966Z,5.28
2019-04-16T22:32:23.625Z,5.21
